This is the latest recevied weather packets stored in our database for station/object KE2HEH. If no packets are shown the sender has not sent any weather packets the latest 10 day(s).
| Time | Temp. | Humidity | Pressure | Rain* | Wind** | Luminosity | Snow |
|---|---|---|---|---|---|---|---|
| 1777778473 | 12.22° C | 51% | 1011.5 hPa | 0 mm | - | 0 W/m² | - |
| 1777778170 | 12.22° C | 51% | 1011.3 hPa | 0 mm | - | 0 W/m² | - |
| 1777777868 | 12.22° C | 50% | 1011.3 hPa | 0 mm | - | 0 W/m² | - |
| 1777777563 | 12.22° C | 50% | 1011.3 hPa | 0 mm | - | 0 W/m² | - |
| 1777777260 | 12.22° C | 50% | 1011.4 hPa | 0 mm | - | 0 W/m² | - |
| 1777776957 | 12.22° C | 49% | 1011.4 hPa | 0 mm | - | 0 W/m² | - |
| 1777776655 | 12.78° C | 48% | 1011.4 hPa | 0 mm | - | 0 W/m² | - |
| 1777776350 | 12.78° C | 46% | 1011.3 hPa | 0 mm | - | 0 W/m² | - |
| 1777776048 | 12.78° C | 46% | 1011.4 hPa | 0 mm | - | 0 W/m² | - |
| 1777775745 | 12.78° C | 45% | 1011.4 hPa | 0 mm | - | 0 W/m² | - |
| 1777775442 | 12.78° C | 45% | 1011.5 hPa | 0 mm | - | 0 W/m² | - |
| 1777775138 | 12.78° C | 47% | 1011.5 hPa | 0 mm | - | 0 W/m² | - |
| 1777774833 | 12.22° C | 48% | 1011.5 hPa | 0 mm | - | 0 W/m² | - |
| 1777774530 | 11.67° C | 64% | 1011.6 hPa | 0 mm | - | 0 W/m² | - |
| 1777774227 | 10.56° C | 75% | 1011.5 hPa | 0 mm | - | 0 W/m² | - |
| 1777773924 | 10.56° C | 77% | 1011.8 hPa | 0 mm | - | 0 W/m² | - |
| 1777773621 | 11.11° C | 78% | 1011.8 hPa | 0 mm | - | 0 W/m² | - |
| 1777773318 | 11.67° C | 80% | 1011.7 hPa | 0 mm | - | 0 W/m² | - |
| 1777773015 | 11.67° C | 81% | 1011.9 hPa | 0 mm | - | 0 W/m² | - |
| 1777772711 | 11.11° C | 82% | 1011.7 hPa | 0 mm | - | 0 W/m² | - |
| 1777772409 | 11.67° C | 82% | 1011.6 hPa | 0 mm | - | 0 W/m² | - |
| 1777772106 | 11.67° C | 82% | 1011.7 hPa | 0 mm | - | 0 W/m² | - |
| 1777771803 | 11.67° C | 82% | 1011.8 hPa | 0 mm | - | 0 W/m² | - |
| 1777771501 | 11.67° C | 82% | 1011.8 hPa | 0 mm | - | 0 W/m² | - |
| 1777771196 | 11.67° C | 83% | 1011.8 hPa | 0 mm | - | 0 W/m² | - |
* Rain latest hour (hover to see other rain measurements)
** Current wind speed in m/s (hover to see current wind gust speed)